Аэропорт: Курск-Восточный . Курск

ICAO: UUOK

METAR:
2023-12-09 05:30:00
UUOK 090530Z 11005MPS 8000 -SN OVC049 M07/M08 Q1025 RESN R12/492029 NOSIG RMK QFE751/1001
TAF:
Информация по данной станции не доступна